Time;durP1;ratioP1;P1;durP2;ratioP2;P2;SDS_P1;SDS_P2;PMS_P1;PMS_P2;Temp;Humidity;BMP_temperature;BMP_pressure;BME280_temperature;BME280_humidity;BME280_pressure;Samples;Min_cycle;Max_cycle;Signal;HPM_P1;HPM_P2
2022/03/22 00:00:49;;;;;;;14.05;8.57;;;1.10;99.90;;;;;;5058749;28;20119;-32
2022/03/22 00:03:15;;;;;;;16.05;8.40;;;1.10;99.90;;;;;;5055354;28;20035;-32
2022/03/22 00:05:42;;;;;;;18.45;10.48;;;1.10;99.90;;;;;;5056313;28;20477;-32
2022/03/22 00:08:09;;;;;;;15.38;9.35;;;1.10;99.90;;;;;;5052951;28;20109;-32
2022/03/22 00:10:36;;;;;;;16.55;9.63;;;1.00;99.90;;;;;;5059926;28;20047;-32
2022/03/22 00:13:05;;;;;;;16.20;9.43;;;0.90;99.90;;;;;;5058299;28;20024;-32
2022/03/22 00:15:32;;;;;;;19.67;8.80;;;1.00;99.90;;;;;;5058794;28;20193;-32
2022/03/22 00:17:59;;;;;;;14.90;8.05;;;1.00;99.90;;;;;;5057998;28;20033;-32
2022/03/22 00:20:24;;;;;;;16.27;9.18;;;0.70;99.90;;;;;;5053550;28;20823;-32
2022/03/22 00:22:51;;;;;;;17.80;9.75;;;0.70;99.90;;;;;;5056432;28;20111;-32
2022/03/22 00:25:16;;;;;;;19.67;10.63;;;0.70;99.90;;;;;;5055909;28;20028;-32
2022/03/22 00:27:52;;;;;;;19.75;10.02;;;0.60;99.90;;;;;;5057653;28;20032;-32
2022/03/22 00:30:32;;;;;;;17.88;8.85;;;0.70;99.90;;;;;;5055366;28;20096;-32
2022/03/22 00:33:01;;;;;;;20.67;10.88;;;0.60;99.90;;;;;;5055300;28;20043;-32
2022/03/22 00:35:29;;;;;;;13.60;8.85;;;0.40;99.90;;;;;;5061790;28;20028;-32
2022/03/22 00:37:58;;;;;;;17.60;10.70;;;0.50;99.90;;;;;;5061149;28;20016;-32
2022/03/22 00:40:25;;;;;;;22.05;10.32;;;0.50;99.90;;;;;;5060201;28;20041;-32
2022/03/22 00:42:53;;;;;;;19.02;10.35;;;0.60;99.90;;;;;;5084279;28;20167;-32
2022/03/22 00:45:18;;;;;;;14.83;9.37;;;0.60;99.90;;;;;;5059401;28;20046;-32
2022/03/22 00:47:45;;;;;;;14.18;8.75;;;0.70;99.90;;;;;;5061841;28;20321;-32
2022/03/22 00:50:13;;;;;;;16.20;9.25;;;0.60;99.90;;;;;;5057626;28;20039;-33
2022/03/22 00:52:39;;;;;;;16.85;9.45;;;0.70;99.90;;;;;;5062150;28;20157;-32
2022/03/22 00:55:05;;;;;;;15.85;10.10;;;0.60;99.90;;;;;;5058053;28;20115;-32
2022/03/22 00:57:33;;;;;;;20.63;10.43;;;0.70;99.90;;;;;;5052923;28;20028;-32
2022/03/22 01:00:02;;;;;;;12.37;7.83;;;0.70;99.90;;;;;;5062848;28;20024;-32
2022/03/22 01:02:28;;;;;;;15.05;8.75;;;0.70;99.90;;;;;;5053032;28;20111;-33
2022/03/22 01:04:56;;;;;;;15.52;9.30;;;0.70;99.90;;;;;;5054366;28;20040;-32
2022/03/22 01:07:22;;;;;;;19.27;9.95;;;0.60;99.90;;;;;;5055289;28;20035;-32
2022/03/22 01:09:48;;;;;;;21.02;8.93;;;0.60;99.90;;;;;;5051619;28;20037;-32
2022/03/22 01:12:15;;;;;;;17.70;10.35;;;0.40;99.90;;;;;;5058138;28;20020;-32
2022/03/22 01:14:41;;;;;;;21.33;10.75;;;0.30;99.90;;;;;;5063466;28;20108;-32
2022/03/22 01:17:06;;;;;;;19.05;9.95;;;0.30;99.90;;;;;;5057204;28;20100;-32
2022/03/22 01:19:32;;;;;;;16.02;8.13;;;0.30;99.90;;;;;;5061974;28;20100;-33
2022/03/22 01:21:59;;;;;;;18.50;10.32;;;0.10;99.90;;;;;;5063479;28;20036;-32
2022/03/22 01:24:26;;;;;;;21.20;10.57;;;0.00;99.90;;;;;;5058652;28;20029;-32
2022/03/22 01:26:52;;;;;;;17.73;9.43;;;0.10;99.90;;;;;;5056687;28;20044;-33
2022/03/22 01:29:18;;;;;;;20.05;10.43;;;0.00;99.90;;;;;;5057575;28;20048;-32
2022/03/22 01:31:44;;;;;;;24.55;9.68;;;0.10;99.90;;;;;;5055785;27;20747;-32
2022/03/22 01:34:10;;;;;;;21.02;8.93;;;0.00;99.90;;;;;;5056133;28;20387;-31
2022/03/22 01:36:36;;;;;;;13.27;7.95;;;0.00;99.90;;;;;;5061146;28;20028;-32
2022/03/22 01:39:02;;;;;;;15.80;8.30;;;-0.10;99.90;;;;;;5056771;28;20033;-32
2022/03/22 01:41:28;;;;;;;14.23;9.00;;;0.00;99.90;;;;;;5056565;28;20050;-32
2022/03/22 01:43:54;;;;;;;13.10;8.82;;;0.00;99.90;;;;;;5053195;28;20032;-32
2022/03/22 01:46:24;;;;;;;18.35;9.00;;;0.00;99.90;;;;;;5058667;28;20028;-33
2022/03/22 01:48:50;;;;;;;13.77;8.27;;;0.00;99.90;;;;;;5061185;28;20024;-32
2022/03/22 01:51:18;;;;;;;14.85;8.23;;;0.00;99.90;;;;;;5062071;28;20111;-32
2022/03/22 01:53:46;;;;;;;12.70;8.00;;;-0.10;99.90;;;;;;5062816;28;20218;-32
2022/03/22 01:56:13;;;;;;;13.25;7.90;;;-0.30;99.90;;;;;;5055774;28;20036;-32
2022/03/22 01:58:38;;;;;;;16.17;9.25;;;-0.20;99.90;;;;;;5062575;28;20029;-32
2022/03/22 02:06:33;;;;;;;12.85;7.97;;;-0.20;99.90;;;;;;5059601;28;20107;-32
2022/03/22 02:08:59;;;;;;;14.25;8.23;;;-0.20;99.90;;;;;;5055951;28;20511;-32
2022/03/22 02:11:25;;;;;;;15.05;7.07;;;-0.10;99.90;;;;;;5060934;28;20058;-32
2022/03/22 02:13:51;;;;;;;11.02;7.18;;;-0.10;99.90;;;;;;5055833;28;20029;-32
2022/03/22 02:16:16;;;;;;;12.75;8.23;;;-0.20;99.90;;;;;;5059588;28;20054;-32
2022/03/22 02:18:42;;;;;;;13.98;7.32;;;-0.20;99.90;;;;;;5060514;28;20052;-32
2022/03/22 02:21:09;;;;;;;12.00;6.90;;;-0.20;99.90;;;;;;5060554;28;20089;-32
2022/03/22 02:23:53;;;;;;;9.00;6.32;;;-0.20;99.90;;;;;;5058381;28;20446;-33
2022/03/22 02:26:20;;;;;;;20.58;7.50;;;-0.30;99.90;;;;;;5058217;28;20033;-32
2022/03/22 02:28:46;;;;;;;11.23;7.18;;;-0.30;99.90;;;;;;5055009;28;20101;-33
2022/03/22 02:31:15;;;;;;;13.38;7.32;;;-0.30;99.90;;;;;;5055937;28;20055;-32
2022/03/22 02:33:41;;;;;;;;;;;-0.40;99.90;;;;;;5058773;28;20112;-32
2022/03/22 02:36:07;;;;;;;8.70;5.75;;;-0.40;99.90;;;;;;5059039;28;20011;-32
2022/03/22 02:38:33;;;;;;;16.73;8.55;;;-0.40;99.90;;;;;;5058855;28;20051;-32
2022/03/22 02:40:59;;;;;;;13.75;7.93;;;-0.60;99.90;;;;;;5062931;28;20075;-32
2022/03/22 02:43:24;;;;;;;12.25;6.72;;;-0.70;99.90;;;;;;5076663;28;20117;-32
2022/03/22 02:45:50;;;;;;;13.77;8.85;;;-0.70;99.90;;;;;;5060558;28;20466;-32
2022/03/22 02:48:18;;;;;;;11.77;6.63;;;-0.60;99.90;;;;;;5060541;28;20036;-32
2022/03/22 02:50:44;;;;;;;13.13;7.55;;;-0.80;99.90;;;;;;5059121;28;20113;-33
2022/03/22 02:53:10;;;;;;;12.75;8.30;;;-1.00;99.90;;;;;;5065064;28;20060;-32
2022/03/22 02:55:36;;;;;;;16.80;7.32;;;-1.00;99.90;;;;;;5055593;28;20162;-32
2022/03/22 02:58:03;;;;;;;9.70;5.15;;;-1.00;99.90;;;;;;5058051;28;20028;-34
2022/03/22 03:00:28;;;;;;;8.75;4.13;;;-1.00;99.90;;;;;;5062159;28;20029;-33
2022/03/22 03:02:54;;;;;;;14.13;8.57;;;-1.40;99.90;;;;;;5052520;28;20101;-32
2022/03/22 03:05:21;;;;;;;11.38;7.47;;;-1.30;99.90;;;;;;5057645;28;20043;-32
2022/03/22 03:07:47;;;;;;;10.90;5.97;;;-1.20;99.90;;;;;;5057475;28;20047;-32
2022/03/22 03:10:13;;;;;;;15.70;7.65;;;-1.10;99.90;;;;;;5053070;28;20058;-32
2022/03/22 03:12:39;;;;;;;15.70;8.15;;;-1.10;99.90;;;;;;5055438;28;20482;-32
2022/03/22 03:15:08;;;;;;;12.93;7.05;;;-1.00;99.90;;;;;;5058483;28;20085;-33
2022/03/22 03:17:34;;;;;;;9.10;6.13;;;-0.90;99.90;;;;;;5057396;28;20953;-33
2022/03/22 03:20:00;;;;;;;11.35;6.63;;;-0.90;99.90;;;;;;5058199;28;20033;-32
2022/03/22 03:22:25;;;;;;;8.63;5.63;;;-0.90;99.90;;;;;;5058128;28;20044;-32
2022/03/22 03:24:51;;;;;;;15.73;7.78;;;-1.10;99.90;;;;;;5055686;28;20025;-32
2022/03/22 03:27:17;;;;;;;13.07;6.65;;;-1.00;99.90;;;;;;5060708;28;20123;-32
2022/03/22 03:29:43;;;;;;;11.88;6.72;;;-0.90;99.90;;;;;;5055525;28;20429;-32
2022/03/22 03:32:08;;;;;;;8.63;6.45;;;-1.10;99.90;;;;;;5063510;28;20059;-32
2022/03/22 03:34:34;;;;;;;7.43;5.63;;;-1.20;99.90;;;;;;5055434;28;20032;-32
2022/03/22 03:37:00;;;;;;;7.50;4.18;;;-1.50;99.90;;;;;;5059418;28;20584;-33
2022/03/22 03:39:26;;;;;;;15.00;6.97;;;-1.40;99.90;;;;;;5060940;28;20124;-32
2022/03/22 03:41:56;;;;;;;11.32;6.72;;;-1.40;99.90;;;;;;5059125;28;20545;-33
2022/03/22 03:47:07;;;;;;;14.90;6.38;;;-1.40;99.90;;;;;;5057869;28;20036;-32
2022/03/22 03:49:41;;;;;;;8.43;5.22;;;-1.30;99.90;;;;;;5059198;28;20120;-32
2022/03/22 03:52:10;;;;;;;10.95;6.25;;;-1.40;99.90;;;;;;5059319;28;20406;-32
2022/03/22 03:54:36;;;;;;;15.48;6.95;;;-1.50;99.90;;;;;;5052777;28;20034;-32
2022/03/22 03:57:02;;;;;;;14.93;7.07;;;-1.50;99.90;;;;;;5056467;28;20036;-32
2022/03/22 03:59:28;;;;;;;12.70;6.57;;;-1.60;99.90;;;;;;5056156;28;20082;-32
2022/03/22 04:01:54;;;;;;;10.40;7.10;;;-1.90;99.90;;;;;;5056885;28;20897;-32
2022/03/22 04:04:20;;;;;;;15.65;7.00;;;-1.70;99.90;;;;;;5057831;28;20024;-33
2022/03/22 04:06:47;;;;;;;15.88;7.32;;;-1.70;99.90;;;;;;5054894;28;21099;-32
2022/03/22 04:09:16;;;;;;;11.27;7.07;;;-1.70;99.90;;;;;;5052477;28;20037;-33
2022/03/22 04:11:43;;;;;;;12.32;7.55;;;-1.90;99.90;;;;;;5055737;28;20028;-32
2022/03/22 04:14:09;;;;;;;15.38;6.20;;;-1.80;99.90;;;;;;5056007;28;20029;-32
2022/03/22 04:16:36;;;;;;;11.73;7.03;;;-1.90;99.90;;;;;;5060027;28;20037;-32
2022/03/22 04:19:03;;;;;;;15.75;8.55;;;-2.10;99.90;;;;;;5059863;28;20028;-32
2022/03/22 04:21:29;;;;;;;12.85;7.20;;;-2.60;99.90;;;;;;5057863;28;20112;-33
2022/03/22 04:23:55;;;;;;;13.98;8.10;;;-2.50;99.90;;;;;;5058629;28;20037;-32
2022/03/22 04:26:20;;;;;;;17.98;8.50;;;-2.40;99.90;;;;;;5055107;28;21527;-32
2022/03/22 04:34:15;;;;;;;12.90;8.07;;;-2.30;99.90;;;;;;5057155;28;20602;-32
2022/03/22 04:36:40;;;;;;;12.38;8.75;;;-2.20;99.90;;;;;;5055018;28;20024;-32
2022/03/22 04:39:06;;;;;;;15.80;9.68;;;-2.10;99.90;;;;;;5054218;28;20036;-32
2022/03/22 04:41:32;;;;;;;12.30;6.60;;;-2.00;99.90;;;;;;5056126;28;20134;-32
2022/03/22 04:43:57;;;;;;;15.88;8.90;;;-1.90;99.90;;;;;;5059042;28;20413;-32
2022/03/22 04:46:23;;;;;;;15.70;8.20;;;-1.90;99.90;;;;;;5056019;28;21295;-33
2022/03/22 04:48:48;;;;;;;13.27;8.52;;;-1.90;99.90;;;;;;5056751;28;20032;-33
2022/03/22 04:56:48;;;;;;;13.52;7.55;;;-1.80;99.90;;;;;;5062298;28;22011;-32
2022/03/22 04:59:15;;;;;;;;;;;-2.00;99.90;;;;;;5062357;28;20444;-32
2022/03/22 05:01:42;;;;;;;8.32;5.60;;;-2.00;99.90;;;;;;5049214;28;20282;-33
2022/03/22 05:04:09;;;;;;;14.18;7.38;;;-1.90;99.90;;;;;;5058455;28;20024;-32
2022/03/22 05:06:37;;;;;;;10.30;7.63;;;-1.80;99.90;;;;;;5054475;28;20102;-32
2022/03/22 05:09:07;;;;;;;9.63;6.32;;;-1.80;99.90;;;;;;5052387;28;20082;-32
2022/03/22 05:11:33;;;;;;;6.00;5.05;;;-1.80;99.90;;;;;;5054581;28;20398;-32
2022/03/22 05:13:59;;;;;;;3.05;2.85;;;-2.00;99.90;;;;;;5058075;28;20467;-33
2022/03/22 05:16:25;;;;;;;9.93;4.97;;;-2.40;99.90;;;;;;5055263;28;20036;-32
2022/03/22 05:18:51;;;;;;;8.88;6.13;;;-2.80;99.90;;;;;;5055249;28;20017;-32
2022/03/22 05:21:17;;;;;;;11.70;6.00;;;-2.90;99.90;;;;;;5059955;28;20493;-32
2022/03/22 05:23:47;;;;;;;2.97;2.70;;;-2.70;99.90;;;;;;5059833;28;20020;-32
2022/03/22 05:26:13;;;;;;;15.02;8.63;;;-2.90;99.90;;;;;;5084631;28;20055;-32
2022/03/22 05:28:40;;;;;;;7.10;5.10;;;-2.80;99.90;;;;;;5057689;28;20105;-32
2022/03/22 05:31:09;;;;;;;11.75;7.07;;;-2.70;99.90;;;;;;5058230;28;20049;-33
2022/03/22 05:33:36;;;;;;;;;;;-2.80;99.90;;;;;;5065811;28;20489;-32
2022/03/22 05:36:02;;;;;;;9.43;5.95;;;-2.70;99.90;;;;;;5062406;28;20007;-32
2022/03/22 05:38:28;;;;;;;11.38;5.97;;;-2.50;99.90;;;;;;5059913;28;20028;-32
2022/03/22 05:40:54;;;;;;;15.95;7.80;;;-2.40;99.90;;;;;;5059256;28;20036;-32
2022/03/22 05:43:20;;;;;;;11.80;7.25;;;-2.40;99.90;;;;;;5062665;28;20048;-33
2022/03/22 05:45:48;;;;;;;8.25;5.07;;;-2.20;99.90;;;;;;5062575;28;20071;-32
2022/03/22 05:48:18;;;;;;;9.27;6.75;;;-2.20;99.90;;;;;;5060015;28;20062;-32
2022/03/22 05:50:44;;;;;;;9.10;5.75;;;-2.20;99.90;;;;;;5058535;28;20043;-32
2022/03/22 05:53:12;;;;;;;12.32;7.28;;;-2.10;99.90;;;;;;5058342;28;20094;-32
2022/03/22 05:55:39;;;;;;;14.77;7.07;;;-2.00;99.90;;;;;;5057525;28;20089;-32
2022/03/22 05:58:05;;;;;;;18.75;9.05;;;-2.00;99.90;;;;;;5058247;28;20475;-32
2022/03/22 06:00:32;;;;;;;19.00;9.32;;;-1.90;99.90;;;;;;5059808;28;20041;-32
2022/03/22 06:02:58;;;;;;;12.05;6.95;;;-1.80;99.90;;;;;;5060696;27;20486;-32
2022/03/22 06:05:24;;;;;;;14.70;7.00;;;-1.70;99.90;;;;;;5064102;28;20035;-32
2022/03/22 06:07:50;;;;;;;16.65;7.82;;;-1.60;99.90;;;;;;5055371;28;20085;-32
2022/03/22 06:10:15;;;;;;;10.65;6.85;;;-1.50;99.90;;;;;;5060693;28;20040;-33
2022/03/22 06:12:45;;;;;;;16.30;7.70;;;-1.50;99.90;;;;;;5063730;28;20466;-32
2022/03/22 06:15:19;;;;;;;9.63;5.95;;;-1.40;99.90;;;;;;5062072;28;20029;-33
2022/03/22 06:17:52;;;;;;;19.85;7.72;;;-1.40;99.90;;;;;;5060265;28;20032;-33
2022/03/22 06:20:24;;;;;;;9.35;5.63;;;-1.40;99.90;;;;;;5062505;28;20017;-32
2022/03/22 06:22:50;;;;;;;11.40;7.03;;;-1.30;99.90;;;;;;5060996;28;20037;-32
2022/03/22 06:25:17;;;;;;;19.58;8.60;;;-1.20;99.90;;;;;;5091021;27;20148;-32
2022/03/22 06:27:45;;;;;;;19.55;8.68;;;-1.20;99.90;;;;;;5063066;28;20021;-32
2022/03/22 06:30:13;;;;;;;14.35;8.25;;;-1.10;99.90;;;;;;5061408;28;20033;-33
2022/03/22 06:32:45;;;;;;;20.33;8.88;;;-1.10;99.90;;;;;;5059386;28;20050;-32
2022/03/22 06:35:12;;;;;;;16.05;8.40;;;-1.10;99.90;;;;;;5061247;28;20099;-33
2022/03/22 06:37:39;;;;;;;14.52;8.25;;;-1.10;99.90;;;;;;5062339;28;20051;-32
2022/03/22 06:40:09;;;;;;;12.95;8.43;;;-1.10;99.90;;;;;;5053823;28;20028;-34
2022/03/22 06:42:35;;;;;;;17.33;9.27;;;-1.10;99.90;;;;;;5059843;28;20060;-33
2022/03/22 06:45:03;;;;;;;15.38;9.30;;;-1.00;99.90;;;;;;5060103;28;20020;-32
2022/03/22 06:47:30;;;;;;;11.13;7.40;;;-0.80;99.90;;;;;;5059982;28;20028;-33
2022/03/22 06:49:55;;;;;;;18.33;9.73;;;-0.70;99.90;;;;;;5062445;28;20093;-33
2022/03/22 06:52:21;;;;;;;15.65;8.48;;;-0.60;99.90;;;;;;5060522;28;20044;-32
2022/03/22 06:54:47;;;;;;;17.48;9.95;;;-0.40;99.90;;;;;;5058884;28;20033;-32
2022/03/22 06:57:12;;;;;;;15.88;9.40;;;-0.30;99.90;;;;;;5061006;28;22130;-32
2022/03/22 06:59:38;;;;;;;14.52;8.68;;;-0.20;99.90;;;;;;5058981;28;20039;-32
2022/03/22 07:02:06;;;;;;;17.95;9.52;;;0.00;99.90;;;;;;5057792;28;20115;-32
2022/03/22 07:04:32;;;;;;;19.63;9.20;;;0.00;99.90;;;;;;5062909;28;20032;-32
2022/03/22 07:06:58;;;;;;;15.60;9.45;;;0.10;99.90;;;;;;5062851;28;20033;-32
2022/03/22 07:09:24;;;;;;;15.57;8.82;;;0.20;99.90;;;;;;5061366;28;20111;-32
2022/03/22 07:11:50;;;;;;;17.27;9.63;;;0.30;99.90;;;;;;5060164;28;20085;-32
2022/03/22 07:14:20;;;;;;;20.63;9.45;;;0.40;99.90;;;;;;5062080;28;20025;-33
2022/03/22 07:16:47;;;;;;;16.83;8.95;;;0.50;99.90;;;;;;5059078;28;20107;-33
2022/03/22 07:19:23;;;;;;;19.27;10.18;;;0.70;99.90;;;;;;5056966;28;20048;-32
2022/03/22 07:21:49;;;;;;;16.02;9.65;;;0.90;99.90;;;;;;5053571;28;20472;-32
2022/03/22 07:24:20;;;;;;;15.20;10.25;;;1.10;99.90;;;;;;5056146;28;20458;-32
2022/03/22 07:26:46;;;;;;;19.33;11.35;;;1.40;99.90;;;;;;5055325;28;20167;-33
2022/03/22 07:29:13;;;;;;;20.95;12.13;;;1.70;99.90;;;;;;5054012;28;20040;-32
2022/03/22 07:31:41;;;;;;;24.02;10.82;;;2.00;99.90;;;;;;5059685;28;20044;-32
2022/03/22 07:34:11;;;;;;;20.25;11.23;;;2.20;99.90;;;;;;5058138;28;20032;-32
2022/03/22 07:36:47;;;;;;;20.13;10.90;;;2.30;99.90;;;;;;5061204;28;20028;-32
2022/03/22 07:39:13;;;;;;;19.95;10.18;;;2.60;99.90;;;;;;5052940;28;20063;-32
2022/03/22 07:41:43;;;;;;;20.50;11.13;;;2.80;99.90;;;;;;5053397;28;20033;-32
2022/03/22 07:44:12;;;;;;;18.45;9.70;;;2.90;99.90;;;;;;5058634;28;20024;-32
2022/03/22 07:46:37;;;;;;;19.58;11.30;;;3.10;99.90;;;;;;5065267;28;20619;-32
2022/03/22 07:54:32;;;;;;;16.10;10.00;;;3.70;99.90;;;;;;5058719;28;20052;-32
2022/03/22 07:56:57;;;;;;;19.00;9.73;;;4.00;99.90;;;;;;5060297;28;20037;-32
2022/03/22 07:59:27;;;;;;;19.70;9.85;;;4.10;99.90;;;;;;5053927;28;20414;-33
2022/03/22 08:01:53;;;;;;;17.17;9.55;;;4.30;99.90;;;;;;5053716;28;20174;-33
2022/03/22 08:04:19;;;;;;;21.27;10.40;;;4.50;99.90;;;;;;5059094;28;20029;-32
2022/03/22 08:06:44;;;;;;;21.02;9.40;;;4.70;98.90;;;;;;5054910;28;20029;-32
2022/03/22 08:09:11;;;;;;;16.35;9.20;;;5.00;97.70;;;;;;5058401;28;20034;-33
2022/03/22 08:11:36;;;;;;;16.58;9.45;;;5.20;96.60;;;;;;5060719;28;20478;-33
2022/03/22 08:14:04;;;;;;;12.38;8.13;;;5.30;94.80;;;;;;5058682;28;20082;-33
2022/03/22 08:16:29;;;;;;;14.68;8.93;;;5.50;87.00;;;;;;5059122;28;20025;-32
2022/03/22 08:18:55;;;;;;;14.35;7.05;;;5.60;83.60;;;;;;5058827;28;20024;-33
2022/03/22 08:21:21;;;;;;;11.18;7.53;;;5.80;80.20;;;;;;5088565;27;20127;-32
2022/03/22 08:23:47;;;;;;;12.27;7.45;;;5.80;77.80;;;;;;5054019;28;20037;-32
2022/03/22 08:26:15;;;;;;;10.35;6.88;;;5.90;78.00;;;;;;5058774;28;20094;-33
2022/03/22 08:28:42;;;;;;;13.88;7.30;;;6.20;75.60;;;;;;5056124;28;20139;-32
2022/03/22 08:31:10;;;;;;;9.65;6.90;;;6.40;72.80;;;;;;5056444;28;20206;-32
2022/03/22 08:33:36;;;;;;;11.75;6.80;;;6.40;68.60;;;;;;5056588;28;20119;-32
2022/03/22 08:36:02;;;;;;;13.35;7.18;;;6.60;66.20;;;;;;5058922;28;20040;-32
2022/03/22 08:38:28;;;;;;;12.85;7.70;;;6.60;68.80;;;;;;5060603;28;20036;-32
2022/03/22 08:40:56;;;;;;;11.20;7.95;;;6.90;71.70;;;;;;5057418;28;20145;-32
2022/03/22 08:43:25;;;;;;;12.13;8.40;;;7.20;70.00;;;;;;5056039;28;20124;-32
2022/03/22 08:45:51;;;;;;;14.20;7.82;;;7.30;67.00;;;;;;5054732;28;20036;-32
2022/03/22 08:48:17;;;;;;;11.65;7.97;;;7.40;67.90;;;;;;5054201;28;20043;-32
2022/03/22 08:50:45;;;;;;;12.88;7.78;;;7.50;64.70;;;;;;5059022;28;20178;-32
2022/03/22 08:53:11;;;;;;;13.70;8.00;;;7.70;65.70;;;;;;5057481;28;20380;-32
2022/03/22 08:55:37;;;;;;;15.18;8.38;;;7.70;63.90;;;;;;5052302;28;20028;-32
2022/03/22 08:58:06;;;;;;;11.98;8.05;;;7.80;60.50;;;;;;5061555;28;20032;-32
2022/03/22 09:00:36;;;;;;;10.63;8.25;;;7.90;61.50;;;;;;5055211;28;20390;-32
2022/03/22 09:03:04;;;;;;;19.27;8.38;;;8.10;66.30;;;;;;5061048;28;20944;-33
2022/03/22 09:08:14;;;;;;;13.50;8.07;;;8.30;61.20;;;;;;5055596;28;20397;-33
2022/03/22 09:10:40;;;;;;;13.35;7.70;;;8.40;58.70;;;;;;5059621;28;20032;-32
2022/03/22 09:13:07;;;;;;;16.25;8.68;;;8.40;60.40;;;;;;5055736;28;20478;-32
2022/03/22 09:15:39;;;;;;;13.18;8.30;;;8.50;61.40;;;;;;5053722;28;20299;-33
2022/03/22 09:18:13;;;;;;;12.48;7.97;;;8.70;57.50;;;;;;5056054;28;21099;-32
2022/03/22 09:20:38;;;;;;;12.57;8.20;;;8.90;57.00;;;;;;5052427;28;20090;-33
2022/03/22 09:23:04;;;;;;;14.77;8.75;;;8.90;55.40;;;;;;5052842;28;20024;-32
2022/03/22 09:25:30;;;;;;;15.38;8.98;;;8.90;54.40;;;;;;5053720;28;20374;-32
2022/03/22 09:27:56;;;;;;;16.98;8.23;;;9.00;53.70;;;;;;5053440;28;20064;-33
2022/03/22 09:30:22;;;;;;;13.75;8.30;;;9.30;54.50;;;;;;5053818;28;20486;-32
2022/03/22 09:32:48;;;;;;;16.27;8.63;;;9.30;52.30;;;;;;5056701;28;20067;-32
2022/03/22 09:35:17;;;;;;;13.55;7.70;;;9.20;52.80;;;;;;5054159;28;20108;-32
2022/03/22 09:37:43;;;;;;;;;;;9.50;53.50;;;;;;5052232;28;20120;-33
2022/03/22 09:40:11;;;;;;;13.82;8.23;;;9.80;53.30;;;;;;5084359;28;19957;-32
2022/03/22 09:42:38;;;;;;;13.75;8.95;;;9.70;53.20;;;;;;5050900;28;20037;-32
2022/03/22 09:45:08;;;;;;;15.77;8.15;;;9.90;53.80;;;;;;5054797;28;20036;-32
2022/03/22 09:47:38;;;;;;;16.35;9.57;;;10.10;53.40;;;;;;5053384;28;20590;-33
2022/03/22 09:50:06;;;;;;;14.70;8.13;;;10.20;56.10;;;;;;5054223;28;20024;-32
2022/03/22 09:52:34;;;;;;;15.32;9.20;;;10.50;52.60;;;;;;5056639;28;20037;-32
2022/03/22 09:55:00;;;;;;;18.15;9.85;;;10.50;52.30;;;;;;5052118;28;20151;-32
2022/03/22 09:57:25;;;;;;;18.02;9.15;;;10.40;51.60;;;;;;5056089;28;20043;-32
2022/03/22 09:59:51;;;;;;;13.70;8.90;;;10.40;52.00;;;;;;5056704;28;20040;-32
2022/03/22 10:02:29;;;;;;;15.43;8.90;;;10.60;52.10;;;;;;5054906;28;20032;-32
2022/03/22 10:04:55;;;;;;;16.52;8.95;;;10.50;52.30;;;;;;5054878;28;20056;-32
2022/03/22 10:07:21;;;;;;;17.35;9.38;;;10.60;50.60;;;;;;5058674;28;20629;-32
2022/03/22 10:10:02;;;;;;;14.88;8.90;;;10.50;50.10;;;;;;5061073;28;20151;-32
2022/03/22 10:12:36;;;;;;;14.88;9.23;;;10.50;49.80;;;;;;5057612;28;20170;-32
2022/03/22 10:15:10;;;;;;;18.85;9.48;;;10.60;49.80;;;;;;5055745;28;20055;-33
2022/03/22 10:17:36;;;;;;;15.90;9.38;;;10.80;51.90;;;;;;5054705;28;20680;-32
2022/03/22 10:20:05;;;;;;;16.17;8.75;;;10.90;49.20;;;;;;5060506;28;20497;-32
2022/03/22 10:22:32;;;;;;;14.35;9.05;;;10.90;48.30;;;;;;5056139;28;20259;-32
2022/03/22 10:25:00;;;;;;;13.18;8.07;;;11.00;47.90;;;;;;5053951;28;20121;-32
2022/03/22 10:27:36;;;;;;;17.98;8.55;;;11.00;49.30;;;;;;5058344;28;20493;-32
2022/03/22 10:30:05;;;;;;;17.10;9.93;;;11.30;48.80;;;;;;5055629;28;20043;-32
2022/03/22 10:32:34;;;;;;;19.67;10.35;;;11.50;47.60;;;;;;5057640;28;20053;-32
2022/03/22 10:35:14;;;;;;;16.85;9.27;;;11.50;47.90;;;;;;5056426;28;20048;-32
2022/03/22 10:37:45;;;;;;;17.05;9.23;;;11.60;46.80;;;;;;5057585;28;20055;-32
2022/03/22 10:40:26;;;;;;;15.82;9.68;;;11.60;47.40;;;;;;5061196;28;20024;-32
2022/03/22 10:42:55;;;;;;;16.15;8.40;;;11.70;46.10;;;;;;5061793;28;20032;-32
2022/03/22 10:45:20;;;;;;;20.52;8.73;;;11.80;45.10;;;;;;5057100;28;20046;-32
2022/03/22 10:47:47;;;;;;;18.25;9.40;;;11.90;47.20;;;;;;5060367;28;20746;-33
2022/03/22 10:50:13;;;;;;;19.27;9.68;;;12.10;50.00;;;;;;5060805;28;20111;-32
2022/03/22 10:53:12;;;;;;;14.05;8.18;;;12.30;49.00;;;;;;5058422;28;20036;-32
2022/03/22 10:55:38;;;;;;;16.52;8.70;;;12.50;46.50;;;;;;5049602;28;20036;-32
2022/03/22 10:58:04;;;;;;;18.42;8.65;;;12.60;46.20;;;;;;5062235;28;20036;-32
2022/03/22 11:00:30;;;;;;;20.00;9.30;;;12.50;45.30;;;;;;5060838;28;20021;-32
2022/03/22 11:02:57;;;;;;;14.55;9.07;;;12.80;48.70;;;;;;5056964;28;20853;-33
2022/03/22 11:05:24;;;;;;;15.95;8.95;;;12.80;46.10;;;;;;5054914;28;20031;-32
2022/03/22 11:07:52;;;;;;;13.93;8.52;;;12.80;44.10;;;;;;5055937;28;20048;-32
2022/03/22 11:10:29;;;;;;;16.60;9.02;;;12.70;44.30;;;;;;5054264;28;20574;-32
2022/03/22 11:12:58;;;;;;;16.45;9.25;;;12.80;45.70;;;;;;5053510;28;20197;-33
2022/03/22 11:15:25;;;;;;;16.38;8.60;;;12.80;45.80;;;;;;5055768;28;20390;-32
2022/03/22 11:17:52;;;;;;;11.48;7.03;;;12.90;45.90;;;;;;5055042;28;20127;-33
2022/03/22 11:20:18;;;;;;;14.00;8.30;;;13.00;40.00;;;;;;5056173;28;20086;-33
2022/03/22 11:22:57;;;;;;;13.45;8.13;;;12.70;40.20;;;;;;5053947;28;20047;-32
2022/03/22 11:25:37;;;;;;;13.45;7.68;;;13.10;40.80;;;;;;5056940;28;20027;-32
2022/03/22 11:28:06;;;;;;;14.60;7.68;;;13.00;40.20;;;;;;5059252;28;20434;-32
2022/03/22 11:30:33;;;;;;;13.27;8.10;;;13.00;41.70;;;;;;5061960;28;20032;-32
2022/03/22 11:35:57;;;;;;;10.63;7.32;;;13.20;41.90;;;;;;5055802;28;20044;-33
2022/03/22 11:38:38;;;;;;;10.50;7.18;;;13.30;37.30;;;;;;5054247;28;20025;-33
2022/03/22 11:43:48;;;;;;;11.57;7.40;;;13.50;39.10;;;;;;5059155;28;20071;-34
2022/03/22 11:46:14;;;;;;;11.50;7.55;;;13.50;37.90;;;;;;5058020;28;20060;-32
2022/03/22 11:48:40;;;;;;;14.75;7.28;;;13.60;38.70;;;;;;5056627;28;20082;-32
2022/03/22 11:51:09;;;;;;;16.00;8.32;;;13.70;39.40;;;;;;5059955;28;20494;-32
2022/03/22 11:53:42;;;;;;;11.80;7.90;;;13.90;38.00;;;;;;5059663;28;21019;-32
2022/03/22 11:56:09;;;;;;;12.07;7.70;;;14.10;40.60;;;;;;5059059;28;20095;-34
2022/03/22 11:58:35;;;;;;;31.65;9.70;;;14.10;37.50;;;;;;5064171;28;20025;-32
2022/03/22 12:01:01;;;;;;;16.92;8.15;;;14.00;39.30;;;;;;5065602;28;20036;-32
2022/03/22 12:03:35;;;;;;;12.43;7.95;;;14.10;41.30;;;;;;5053611;28;20025;-32
2022/03/22 12:06:11;;;;;;;13.40;8.02;;;14.40;43.20;;;;;;5054337;28;20545;-32
2022/03/22 12:08:37;;;;;;;14.25;8.60;;;14.40;40.00;;;;;;5052647;28;20082;-32
2022/03/22 12:11:04;;;;;;;12.40;7.78;;;14.40;38.90;;;;;;5055650;28;20147;-32
2022/03/22 12:13:32;;;;;;;15.43;7.95;;;14.20;38.70;;;;;;5055940;28;20126;-34
2022/03/22 12:16:00;;;;;;;17.02;8.43;;;14.00;37.00;;;;;;5058522;28;20640;-32
2022/03/22 12:18:30;;;;;;;11.57;8.13;;;14.00;38.90;;;;;;5055470;28;20020;-32
2022/03/22 12:20:56;;;;;;;13.68;8.80;;;14.40;39.20;;;;;;5055773;28;20485;-33
2022/03/22 12:23:23;;;;;;;15.90;8.27;;;14.30;41.60;;;;;;5055580;28;20024;-32
2022/03/22 12:25:49;;;;;;;14.10;7.50;;;14.40;37.80;;;;;;5061264;28;20036;-32
2022/03/22 12:28:16;;;;;;;11.93;6.80;;;14.20;35.90;;;;;;5083981;28;20560;-32
2022/03/22 12:30:44;;;;;;;10.57;7.45;;;14.10;34.80;;;;;;5056218;28;20033;-33
2022/03/22 12:33:14;;;;;;;11.75;7.10;;;14.00;36.60;;;;;;5053470;28;20406;-32
2022/03/22 12:35:41;;;;;;;10.75;7.25;;;13.90;33.60;;;;;;5057370;28;20639;-32
2022/03/22 12:38:07;;;;;;;8.75;6.22;;;13.90;34.10;;;;;;5058557;28;20029;-33
2022/03/22 12:40:34;;;;;;;9.43;7.03;;;14.10;34.20;;;;;;5055963;28;20036;-32
2022/03/22 12:43:00;;;;;;;11.23;6.68;;;14.10;32.50;;;;;;5057087;28;20025;-32
2022/03/22 12:45:28;;;;;;;9.15;5.72;;;14.10;34.40;;;;;;5057870;28;20077;-32
2022/03/22 12:47:56;;;;;;;7.50;6.10;;;14.20;31.90;;;;;;5059896;28;20028;-32
2022/03/22 12:50:23;;;;;;;8.77;6.13;;;14.20;31.80;;;;;;5059574;28;20036;-33
2022/03/22 12:52:50;;;;;;;8.02;5.68;;;14.10;31.10;;;;;;5058585;28;20034;-32
2022/03/22 12:55:17;;;;;;;9.07;6.15;;;14.10;32.20;;;;;;5057982;28;20835;-33
2022/03/22 12:57:46;;;;;;;8.82;6.63;;;14.40;33.40;;;;;;5055211;28;20339;-32
2022/03/22 13:00:31;;;;;;;8.15;5.90;;;14.30;31.50;;;;;;5052735;28;20039;-33
2022/03/22 13:03:08;;;;;;;8.50;6.28;;;14.30;32.80;;;;;;5049426;28;20436;-32
2022/03/22 13:05:40;;;;;;;8.98;5.82;;;14.60;34.10;;;;;;5053644;28;20474;-32
2022/03/22 13:08:21;;;;;;;7.35;5.45;;;14.70;33.40;;;;;;5052119;28;20066;-33
2022/03/22 13:16:28;;;;;;;10.98;5.35;;;14.80;32.00;;;;;;5052325;28;20044;-32
2022/03/22 13:18:57;;;;;;;6.22;4.88;;;14.60;29.60;;;;;;5057891;28;20115;-32
2022/03/22 13:21:24;;;;;;;7.20;5.55;;;14.70;31.60;;;;;;5053380;28;20036;-33
2022/03/22 13:24:11;;;;;;;10.10;5.85;;;14.70;29.00;;;;;;5056541;28;20101;-32